Nearby METAR Reports

(scroll for additional cities)

KPSP - Palm Springs, California, USA
Distance from station: WNW 7mi, 11km
Updated: Tue, 11-Dec-2018 5:53pm PST
Clear
Clear
 Wind from WSW
Wind: WSW 5 mph , 7 km/h
Temperature: 64°F , 18°C
Dew Point: 37°F , 3°C
Humidity: 37%
Barometer: 30.03 inHg , 1016.9 hPa
Clouds: Clear
Visibility: 10 miles , 16 km
2018/12/12 01:53 KPSP 120153Z 24004KT 10SM CLR 18/03 A3003 RMK AO2 SLP169 T01780028
KTRM - Thermal/Palm Spg, California, USA
Distance from station: SE 16mi, 26km
Updated: Tue, 11-Dec-2018 5:52pm PST
Clear
Clear
 Wind from ESE
Wind: ESE 7 mph , 11 km/h
Temperature: 61°F , 16°C
Dew Point: 46°F , 8°C
Humidity: 59%
Barometer: 29.99 inHg , 1015.6 hPa
Clouds: Clear
Visibility: 10 miles , 16 km
2018/12/12 01:52 KTRM 120152Z AUTO 11006KT 10SM CLR 16/08 A2999 RMK AO2 SLP154 T01610078
 
KNXP - Twentynine Palms, California, USA
Distance from station: NNE 37mi, 60km
Updated: Tue, 11-Dec-2018 5:56pm PST
Clear
Clear
 Wind from W
Wind: W 7 mph , 11 km/h
Temperature: 54°F , 12°C
Dew Point: 36°F , 2°C
Humidity: 51%
Barometer: 30.14 inHg , 1020.7 hPa
Clouds: Clear
Visibility: 10 miles , 16 km
2018/12/12 01:56 KNXP 120156Z AUTO 26006KT 10SM CLR 12/02 A3014 RMK AO2 SLP188 T01170022
KL35 - Big Bear City, California, USA
Distance from station: NW 43mi, 69km
Updated: Tue, 11-Dec-2018 6:15pm PST
Clear
Clear
 Wind from calm
Wind: Calm
Temperature: 30°F , -1°C
Dew Point: 25°F , -4°C
Humidity: 80%
Barometer: 30.15 inHg , 1021 hPa
Clouds: Clear
Visibility: 10 miles , 16 km
2018/12/12 02:15 KL35 120215Z AUTO 00000KT 10SM CLR M01/M04 A3015 RMK AO2
 
KF70 - Murrieta/Temecula, California, USA
Distance from station: WSW 45mi, 73km
Updated: Tue, 11-Dec-2018 6:15pm PST
Clear
Clear
 Wind from calm
Wind: Calm
Temperature: 55°F , 13°C
Dew Point: 48°F , 9°C
Humidity: 77%
Barometer: 30.03 inHg , 1016.9 hPa
Clouds: Clear
Visibility: 10 miles , 16 km
2018/12/12 02:15 KF70 120215Z AUTO 00000KT 10SM CLR 13/09 A3003 RMK AO1
KRIV - Riverside/March, California, USA
Distance from station: W 51mi, 82km
Updated: Tue, 11-Dec-2018 5:58pm PST
Clear
Clear
 Wind from N
Wind: N 3 mph , 6 km/h
Temperature: 61°F , 16°C
Dew Point: 34°F , 1°C
Humidity: 36%
Barometer: 30.02 inHg , 1016.6 hPa
Clouds: Clear
Visibility: 10 miles , 16 km
2018/12/12 01:58 KRIV 120158Z AUTO 36003KT 10SM CLR 16/01 A3002 RMK AO2 SLP164 T01640009
 
KSBD - San Bernardino, California, USA
Distance from station: WNW 54mi, 86km
Updated: Tue, 11-Dec-2018 5:50pm PST
Clear
Clear
 Wind from NW
Wind: NW 10 mph , 17 km/h
Temperature: 64°F , 18°C
Dew Point: 32°F , 0°C
Humidity: 30%
Barometer: 30.01 inHg , 1016.3 hPa
Clouds: Clear
Visibility: 7 miles , 11 km
2018/12/12 01:50 KSBD 120150Z 31009KT 7SM SKC 18/00 A3001
KRNM - Ramona, California, USA
Distance from station: SSW 60mi, 96km
Updated: Tue, 11-Dec-2018 5:53pm PST
Clear
Clear
 Wind from calm
Wind: Calm
Temperature: 54°F , 12°C
Dew Point: 48°F , 9°C
Humidity: 82%
Barometer: 30.03 inHg , 1016.9 hPa
Clouds: Clear
Visibility: 10 miles , 16 km
2018/12/12 01:53 KRNM 120153Z 00000KT 10SM CLR 12/09 A3003 RMK AO2 SLP166 T01170094
 
KRAL - Riverside, California, USA
Distance from station: W 62mi, 100km
Updated: Tue, 11-Dec-2018 5:53pm PST
Clear
Clear
 Wind from calm
Wind: Calm
Temperature: 63°F , 17°C
Dew Point: 43°F , 6°C
Humidity: 49%
Barometer: 30.02 inHg , 1016.6 hPa
Clouds: Clear
Visibility: 10 miles , 16 km
2018/12/12 01:53 KRAL 120153Z 00000KT 10SM CLR 17/06 A3002 RMK AO2 SLP155 T01670056
KOKB - Oceanside, California, USA
Distance from station: SW 68mi, 109km
Updated: Tue, 11-Dec-2018 5:52pm PST
Clear
Clear
 Wind from calm
Wind: Calm
Temperature: 54°F , 12°C
Dew Point: 52°F , 11°C
Humidity: 94%
Barometer: 30.02 inHg , 1016.6 hPa
Clouds: Clear
Visibility: 10 miles , 16 km
2018/12/12 01:52 KOKB 120152Z AUTO 00000KT 10SM CLR 12/11 A3002 RMK AO2 SLP163 T01220111
 
KONT - Ontario, California, USA
Distance from station: WNW 71mi, 114km
Updated: Tue, 11-Dec-2018 5:53pm PST
Clear
Clear
 Wind from W
Wind: W 5 mph , 7 km/h
Temperature: 63°F , 17°C
Dew Point: 41°F , 5°C
Humidity: 45%
Barometer: 30.01 inHg , 1016.3 hPa
Clouds: Clear
Visibility: 10 miles , 16 km
2018/12/12 01:53 KONT 120153Z 27004KT 10SM CLR 17/05 A3001 RMK AO2 SLP161 T01670050
KNJK - El Centro Naf, California, USA
Distance from station: SSE 78mi, 126km
Updated: Tue, 11-Dec-2018 5:56pm PST
Clear
Clear
 Wind from calm
Wind: Calm
Temperature: 61°F , 16°C
Dew Point: 43°F , 6°C
Humidity: 52%
Barometer: 30.01 inHg , 1016.3 hPa
Clouds: Clear
Visibility: 10 miles , 16 km
2018/12/12 01:56 KNJK 120156Z 00000KT 10SM CLR 16/06 A3001 RMK AO2 SLP178 T01610061 $
 
KSEE - San Diego/Santee, California, USA
Distance from station: SSW 74mi, 120km
Updated: Tue, 11-Dec-2018 5:47pm PST
Clear
Clear
 Wind from WSW
Wind: WSW 3 mph , 6 km/h
Temperature: 61°F , 16°C
Dew Point: 52°F , 11°C
Humidity: 72%
Barometer: 30.03 inHg , 1016.9 hPa
Clouds: Clear
Visibility: 10 miles , 16 km
2018/12/12 01:47 KSEE 120147Z 25003KT 10SM SKC 16/11 A3003
KCNO - Chino, California, USA
Distance from station: W 72mi, 116km
Updated: Tue, 11-Dec-2018 5:53pm PST
Clear
Clear
 Wind from WSW
Wind: WSW 3 mph , 6 km/h
Temperature: 59°F , 15°C
Dew Point: 45°F , 7°C
Humidity: 59%
Barometer: 30.03 inHg , 1016.9 hPa
Clouds: Clear
Visibility: 10 miles , 16 km
2018/12/12 01:53 KCNO 120153Z 24003KT 10SM CLR 15/07 A3003 RMK AO2 SLP165 T01500072